createdAt,value
2019-05-28T00:00:54.047Z,5.75
2019-05-28T00:06:15.588Z,4.78
2019-05-28T00:11:37.339Z,4.87
2019-05-28T00:16:58.891Z,4.85
2019-05-28T00:22:20.714Z,4.92
2019-05-28T00:27:42.779Z,4.72
2019-05-28T00:33:04.541Z,4.62
2019-05-28T00:38:26.123Z,4.12
2019-05-28T00:43:48.015Z,4.35
2019-05-28T00:49:09.959Z,4.35
2019-05-28T00:54:31.409Z,4.58
2019-05-28T00:59:53.785Z,4.60
2019-05-28T01:05:15.610Z,4.30
2019-05-28T01:10:37.327Z,4.30
2019-05-28T01:15:59.183Z,4.40
2019-05-28T01:21:20.274Z,4.33
2019-05-28T01:26:42.289Z,4.55
2019-05-28T01:32:03.973Z,4.15
2019-05-28T01:37:25.763Z,4.15
2019-05-28T01:42:47.534Z,4.35
2019-05-28T01:48:09.201Z,4.42
2019-05-28T01:53:30.848Z,4.12
2019-05-28T01:58:52.438Z,4.22
2019-05-28T02:04:14.482Z,4.60
2019-05-28T02:09:36.030Z,4.08
2019-05-28T02:14:57.565Z,4.50
2019-05-28T02:20:19.319Z,4.53
2019-05-28T02:25:41.157Z,4.75
2019-05-28T02:31:03.073Z,4.62
2019-05-28T02:36:24.639Z,4.50
2019-05-28T02:41:46.189Z,4.17
2019-05-28T02:47:08.184Z,4.20
2019-05-28T02:52:32.009Z,4.40
2019-05-28T02:57:53.848Z,4.20
2019-05-28T03:03:16.015Z,4.15
2019-05-28T03:08:37.690Z,4.10
2019-05-28T03:14:00.008Z,4.33
2019-05-28T03:19:23.854Z,4.45
2019-05-28T03:24:47.363Z,4.30
2019-05-28T03:30:09.448Z,4.40
2019-05-28T03:35:31.471Z,4.33
2019-05-28T03:40:53.376Z,4.35
2019-05-28T03:46:14.992Z,3.92
2019-05-28T03:51:36.800Z,4.55
2019-05-28T03:56:58.434Z,4.22
2019-05-28T04:02:23.653Z,4.15
2019-05-28T04:07:43.830Z,4.42
2019-05-28T04:13:05.417Z,4.42
2019-05-28T04:18:30.086Z,4.37
2019-05-28T04:23:52.137Z,4.58
2019-05-28T04:29:13.939Z,4.50
2019-05-28T04:34:35.944Z,5.10
2019-05-28T04:39:57.471Z,4.60
2019-05-28T04:45:19.213Z,5.28
2019-05-28T04:50:40.856Z,6.47
2019-05-28T04:56:02.290Z,4.33
2019-05-28T05:01:24.187Z,4.42
2019-05-28T05:06:45.799Z,3.92
2019-05-28T05:12:07.638Z,5.05
2019-05-28T05:17:28.843Z,4.97
2019-05-28T05:22:50.699Z,5.60
2019-05-28T05:28:12.147Z,5.80
2019-05-28T05:33:33.700Z,6.78
2019-05-28T05:38:55.744Z,8.43
2019-05-28T05:44:17.647Z,10.03
2019-05-28T05:49:39.773Z,11.45
2019-05-28T05:55:01.713Z,9.05
2019-05-28T06:00:23.751Z,8.28
2019-05-28T06:05:46.042Z,7.78
2019-05-28T06:11:07.752Z,10.05
2019-05-28T06:16:29.501Z,8.75
2019-05-28T06:21:51.099Z,10.70
2019-05-28T06:27:12.789Z,8.13
2019-05-28T06:32:35.685Z,11.15
2019-05-28T06:37:58.187Z,16.32
2019-05-28T06:43:19.523Z,15.10
2019-05-28T06:48:41.091Z,15.50
2019-05-28T06:54:03.058Z,16.97
2019-05-28T06:59:26.810Z,15.20
2019-05-28T07:04:47.996Z,15.65
2019-05-28T07:10:10.227Z,14.50
2019-05-28T07:15:32.281Z,13.53
2019-05-28T07:20:54.008Z,15.63
2019-05-28T07:26:16.027Z,15.93
2019-05-28T07:31:37.921Z,14.93
2019-05-28T07:36:59.857Z,15.30
2019-05-28T07:42:32.226Z,13.38
2019-05-28T07:47:45.353Z,12.85
2019-05-28T07:53:06.867Z,13.45
2019-05-28T07:58:28.898Z,14.65
2019-05-28T08:03:50.662Z,13.58
2019-05-28T08:09:12.281Z,12.60
2019-05-28T08:14:34.083Z,11.95
2019-05-28T08:19:55.876Z,11.78
2019-05-28T08:25:27.784Z,11.48
2019-05-28T08:30:41.336Z,10.10
2019-05-28T08:36:03.542Z,10.25
2019-05-28T08:41:25.167Z,9.68
2019-05-28T08:46:47.329Z,9.35
2019-05-28T08:52:09.285Z,9.33
2019-05-28T08:57:31.323Z,9.33
2019-05-28T09:02:53.470Z,8.63
2019-05-28T09:08:15.040Z,8.98
2019-05-28T09:13:36.487Z,8.48
2019-05-28T09:18:58.476Z,8.08
2019-05-28T09:24:20.422Z,8.08
2019-05-28T09:29:42.019Z,8.00
2019-05-28T09:35:03.556Z,9.13
2019-05-28T09:40:25.654Z,8.53
2019-05-28T09:45:47.284Z,9.40
2019-05-28T09:51:09.009Z,9.45
2019-05-28T09:56:32.790Z,17.07
2019-05-28T10:01:55.226Z,9.80
2019-05-28T10:07:16.768Z,9.18
2019-05-28T10:12:38.335Z,9.63
2019-05-28T10:17:59.984Z,10.45
2019-05-28T10:23:21.641Z,9.90
2019-05-28T10:28:43.260Z,10.15
2019-05-28T10:34:04.913Z,11.00
2019-05-28T10:39:26.398Z,11.03
2019-05-28T10:44:47.938Z,11.08
2019-05-28T10:50:09.793Z,11.15
2019-05-28T10:55:31.165Z,9.83
2019-05-28T11:00:52.797Z,9.65
2019-05-28T11:06:14.668Z,9.60
2019-05-28T11:11:36.694Z,9.30
2019-05-28T11:16:58.347Z,8.45
2019-05-28T11:22:20.093Z,9.15
2019-05-28T11:27:41.712Z,8.48
2019-05-28T11:33:03.141Z,8.60
2019-05-28T11:38:24.943Z,9.60
2019-05-28T11:43:46.404Z,8.63
2019-05-28T11:49:08.303Z,9.48
2019-05-28T11:54:33.959Z,7.62
2019-05-28T11:59:55.611Z,8.00
2019-05-28T12:05:17.677Z,8.15
2019-05-28T12:10:39.678Z,8.23
2019-05-28T12:16:01.642Z,8.05
2019-05-28T12:21:23.449Z,7.97
2019-05-28T12:26:45.213Z,9.10
2019-05-28T12:32:08.419Z,8.43
2019-05-28T12:37:47.179Z,7.03
2019-05-28T12:42:54.214Z,7.28
2019-05-28T12:48:15.675Z,6.78
2019-05-28T12:53:49.439Z,7.58
2019-05-28T12:59:01.201Z,7.20
2019-05-28T13:04:26.043Z,6.90
2019-05-28T13:09:49.386Z,5.47
2019-05-28T13:15:11.898Z,5.62
2019-05-28T13:20:33.288Z,4.60
2019-05-28T13:25:55.238Z,5.67
2019-05-28T13:31:16.915Z,5.17
2019-05-28T13:36:38.211Z,4.90
2019-05-28T13:42:00.324Z,4.67
2019-05-28T13:47:33.014Z,5.25
2019-05-28T13:52:45.960Z,4.58
2019-05-28T13:58:08.001Z,5.60
2019-05-28T14:03:29.805Z,5.53
2019-05-28T14:08:52.195Z,5.67
2019-05-28T14:14:13.543Z,5.58
2019-05-28T14:19:35.203Z,6.10
2019-05-28T14:24:57.085Z,7.00
2019-05-28T14:30:21.868Z,5.50
2019-05-28T14:35:43.719Z,5.62
2019-05-28T14:41:06.300Z,6.42
2019-05-28T14:46:28.140Z,6.00
2019-05-28T14:51:55.684Z,5.40
2019-05-28T14:57:17.338Z,5.55
2019-05-28T15:02:38.845Z,5.60
2019-05-28T15:08:00.513Z,5.10
2019-05-28T15:13:22.363Z,5.70
2019-05-28T15:18:43.892Z,5.42
2019-05-28T15:24:05.801Z,5.05
2019-05-28T15:29:27.501Z,4.42
2019-05-28T15:34:49.012Z,4.67
2019-05-28T15:40:11.740Z,5.03
2019-05-28T15:45:34.060Z,4.78
2019-05-28T15:50:56.218Z,5.03
2019-05-28T15:56:17.872Z,4.50
2019-05-28T16:01:39.338Z,4.90
2019-05-28T16:07:01.162Z,5.37
2019-05-28T16:12:22.895Z,5.03
2019-05-28T16:17:49.752Z,5.35
2019-05-28T16:23:11.566Z,5.47
2019-05-28T16:28:33.048Z,6.50
2019-05-28T16:33:55.163Z,7.15
2019-05-28T16:39:17.566Z,8.38
2019-05-28T16:44:39.566Z,7.72
2019-05-28T16:50:01.301Z,11.73
2019-05-28T16:55:23.415Z,8.93
2019-05-28T17:00:45.511Z,8.43
2019-05-28T17:06:07.423Z,8.85
2019-05-28T17:11:29.456Z,8.98
2019-05-28T17:16:51.561Z,8.03
2019-05-28T17:22:13.099Z,9.45
2019-05-28T17:27:35.089Z,8.33
2019-05-28T17:32:56.939Z,8.58
2019-05-28T17:38:18.502Z,8.68
2019-05-28T17:43:40.098Z,9.00
2019-05-28T17:49:01.469Z,11.00
2019-05-28T17:54:23.596Z,9.60
2019-05-28T17:59:45.374Z,9.30
2019-05-28T18:05:07.470Z,8.95
2019-05-28T18:10:30.853Z,9.35
2019-05-28T18:15:53.247Z,10.40
2019-05-28T18:21:15.069Z,10.10
2019-05-28T18:26:36.702Z,11.65
2019-05-28T18:31:58.370Z,14.03
2019-05-28T18:37:20.436Z,10.60
2019-05-28T18:42:41.931Z,10.68
2019-05-28T18:48:03.285Z,9.90
2019-05-28T18:53:25.026Z,9.75
2019-05-28T18:58:46.598Z,10.03
2019-05-28T19:04:08.431Z,9.45
2019-05-28T19:09:30.200Z,16.67
2019-05-28T19:14:52.047Z,10.78
2019-05-28T19:20:14.482Z,14.07
2019-05-28T19:25:36.243Z,10.18
2019-05-28T19:30:58.464Z,9.55
2019-05-28T19:36:20.919Z,9.30
2019-05-28T19:41:53.925Z,9.45
2019-05-28T19:47:06.337Z,10.40
2019-05-28T19:52:28.036Z,10.75
2019-05-28T19:57:50.484Z,12.70
2019-05-28T20:03:12.709Z,11.40
2019-05-28T20:08:34.647Z,11.85
2019-05-28T20:13:56.748Z,14.40
2019-05-28T20:19:18.569Z,12.15
2019-05-28T20:24:40.361Z,11.40
2019-05-28T20:30:03.015Z,11.80
2019-05-28T20:35:24.635Z,10.93
2019-05-28T20:40:46.247Z,10.90
2019-05-28T20:46:08.595Z,11.25
2019-05-28T20:51:30.505Z,11.18
2019-05-28T20:56:53.564Z,10.93
2019-05-28T21:02:19.059Z,11.10
2019-05-28T21:07:39.516Z,11.08
2019-05-28T21:13:01.062Z,11.05
2019-05-28T21:18:22.600Z,12.03
2019-05-28T21:23:44.450Z,11.70
2019-05-28T21:29:06.248Z,9.88
2019-05-28T21:34:27.850Z,9.08
2019-05-28T21:39:49.661Z,9.80
2019-05-28T21:45:12.457Z,9.55
2019-05-28T21:50:34.505Z,9.65
2019-05-28T21:55:57.197Z,9.08
2019-05-28T22:01:22.709Z,9.13
2019-05-28T22:06:44.756Z,8.90
2019-05-28T22:12:08.475Z,9.08
2019-05-28T22:17:30.091Z,9.10
2019-05-28T22:22:51.730Z,8.50
2019-05-28T22:28:13.783Z,8.13
2019-05-28T22:33:35.519Z,7.45
2019-05-28T22:39:06.826Z,8.03
2019-05-28T22:44:28.957Z,7.87
2019-05-28T22:49:50.579Z,7.62
2019-05-28T22:55:12.245Z,8.00
2019-05-28T23:00:33.874Z,8.30
2019-05-28T23:05:55.307Z,8.03
2019-05-28T23:11:17.063Z,7.95
2019-05-28T23:16:38.399Z,8.03
2019-05-28T23:22:00.920Z,8.68
2019-05-28T23:27:22.261Z,8.13
2019-05-28T23:32:44.033Z,7.45
2019-05-28T23:38:06.938Z,8.35
2019-05-28T23:43:28.969Z,7.67
2019-05-28T23:48:50.191Z,7.05
2019-05-28T23:54:11.947Z,8.10
2019-05-28T23:59:33.526Z,8.45
